Naval Air Station Meridian

Airport
ICAO code: 
KNMM
Summary
ICAO Region: 
NAM
Territory: 
Location: 
Meridian, Mississippi
Serving: 
Meidian
Coordinates: 
Aerial View: 
32° 33' 8.003" N, 88° 33' 20.005" W
Airport LOS: 
Parallel Runway Operation
Metar
Observation
KNMM 020956Z AUTO 26003KT 10SM CLR 12/12 A3012 RMK AO2 SLP209 T01220117
Station
Meridian, Meridian Naval Air Station - McCain Field
Date/Time
2021-12-02 09:56:00
Wind direction
260°
Wind speed
03 kts
Lowest cloud amount
n/a
Temperature
12.2°C
Dew point
11.7°C
Humidity
96%
Weather condition
n/a

Naval Air Station Meridian, or NAS Meridian, is a military airport located 18 km northeast of Meridian, a city in Lauderdale County, Mississippi.

Climatology

Humid “subtropical” climate (Köppen climate classification Cfa) - characterized by hot, humid summers and cool winters. Significant amounts of precipitation occur in all seasons in most areas. Winter rainfall (and sometimes snowfall) is associated with large storms that the westerlies steer from west to east. Most summer rainfall occurs during thunderstorms and occasional tropical storms (hurricanes).

Runways

Designator Length Width Surface Rops
10/28 1951 61 CON No/No
01L/19R 2439 61 CON No/No
01R/19L 2439 61 CON No/No
Airport map: 
Aerial View: 

SKYbrary Partners:

Safety knowledge contributed by: